sensor_id;sensor_type;location;lat;lon;timestamp;P1;durP1;ratioP1;P2;durP2;ratioP2
45792;SDS011;31495;42.740;22.908;2023-07-13T00:00:33;7.40;;;4.50;;
45792;SDS011;31495;42.740;22.908;2023-07-13T00:01:33;8.68;;;4.00;;
45792;SDS011;31495;42.740;22.908;2023-07-13T00:02:32;6.72;;;3.72;;
45792;SDS011;31495;42.740;22.908;2023-07-13T00:03:31;8.75;;;3.90;;
45792;SDS011;31495;42.740;22.908;2023-07-13T00:04:34;5.70;;;3.75;;
45792;SDS011;31495;42.740;22.908;2023-07-13T00:05:33;5.75;;;3.53;;
45792;SDS011;31495;42.740;22.908;2023-07-13T00:06:33;5.32;;;3.55;;
45792;SDS011;31495;42.740;22.908;2023-07-13T00:07:34;8.93;;;4.00;;
45792;SDS011;31495;42.740;22.908;2023-07-13T00:08:34;7.70;;;3.78;;
45792;SDS011;31495;42.740;22.908;2023-07-13T00:09:34;8.15;;;3.97;;
45792;SDS011;31495;42.740;22.908;2023-07-13T00:10:38;6.68;;;3.92;;
45792;SDS011;31495;42.740;22.908;2023-07-13T00:11:39;5.55;;;3.67;;
45792;SDS011;31495;42.740;22.908;2023-07-13T00:12:39;7.50;;;3.88;;
45792;SDS011;31495;42.740;22.908;2023-07-13T00:13:39;6.57;;;3.70;;
45792;SDS011;31495;42.740;22.908;2023-07-13T00:14:39;6.03;;;3.40;;
45792;SDS011;31495;42.740;22.908;2023-07-13T00:15:39;5.65;;;4.00;;
45792;SDS011;31495;42.740;22.908;2023-07-13T00:16:39;9.38;;;3.78;;
45792;SDS011;31495;42.740;22.908;2023-07-13T00:17:43;5.43;;;3.95;;
45792;SDS011;31495;42.740;22.908;2023-07-13T00:18:45;5.90;;;3.85;;
45792;SDS011;31495;42.740;22.908;2023-07-13T00:19:45;6.28;;;4.00;;
45792;SDS011;31495;42.740;22.908;2023-07-13T00:20:45;6.50;;;3.97;;
45792;SDS011;31495;42.740;22.908;2023-07-13T00:21:44;5.43;;;3.55;;
45792;SDS011;31495;42.740;22.908;2023-07-13T00:22:44;5.43;;;4.20;;
45792;SDS011;31495;42.740;22.908;2023-07-13T00:23:43;9.25;;;4.10;;
45792;SDS011;31495;42.740;22.908;2023-07-13T00:24:43;5.30;;;4.03;;
45792;SDS011;31495;42.740;22.908;2023-07-13T00:25:43;5.57;;;3.17;;
45792;SDS011;31495;42.740;22.908;2023-07-13T00:26:43;6.95;;;4.28;;
45792;SDS011;31495;42.740;22.908;2023-07-13T00:27:46;7.00;;;3.42;;
45792;SDS011;31495;42.740;22.908;2023-07-13T00:28:47;4.93;;;3.33;;
45792;SDS011;31495;42.740;22.908;2023-07-13T00:29:47;6.40;;;4.00;;
45792;SDS011;31495;42.740;22.908;2023-07-13T00:30:46;5.93;;;3.75;;
45792;SDS011;31495;42.740;22.908;2023-07-13T00:31:46;4.50;;;3.25;;
45792;SDS011;31495;42.740;22.908;2023-07-13T00:32:46;5.30;;;3.60;;
45792;SDS011;31495;42.740;22.908;2023-07-13T00:33:45;6.40;;;4.03;;
45792;SDS011;31495;42.740;22.908;2023-07-13T00:34:44;6.50;;;4.55;;
45792;SDS011;31495;42.740;22.908;2023-07-13T00:35:44;5.47;;;3.90;;
45792;SDS011;31495;42.740;22.908;2023-07-13T00:36:43;4.68;;;3.47;;
45792;SDS011;31495;42.740;22.908;2023-07-13T00:37:43;6.70;;;4.28;;
45792;SDS011;31495;42.740;22.908;2023-07-13T00:38:43;7.90;;;4.20;;
45792;SDS011;31495;42.740;22.908;2023-07-13T00:39:43;5.80;;;4.00;;
45792;SDS011;31495;42.740;22.908;2023-07-13T00:40:42;6.53;;;3.88;;
45792;SDS011;31495;42.740;22.908;2023-07-13T00:41:42;8.05;;;3.90;;
45792;SDS011;31495;42.740;22.908;2023-07-13T00:42:43;6.20;;;3.75;;
45792;SDS011;31495;42.740;22.908;2023-07-13T00:43:43;7.00;;;4.13;;
45792;SDS011;31495;42.740;22.908;2023-07-13T00:45:00;7.40;;;3.92;;
45792;SDS011;31495;42.740;22.908;2023-07-13T00:46:29;6.47;;;3.92;;
45792;SDS011;31495;42.740;22.908;2023-07-13T00:47:31;8.00;;;4.07;;
45792;SDS011;31495;42.740;22.908;2023-07-13T00:48:32;8.15;;;4.15;;
45792;SDS011;31495;42.740;22.908;2023-07-13T00:49:35;4.40;;;3.38;;
45792;SDS011;31495;42.740;22.908;2023-07-13T00:50:36;5.28;;;3.58;;
45792;SDS011;31495;42.740;22.908;2023-07-13T00:51:38;8.82;;;4.13;;
45792;SDS011;31495;42.740;22.908;2023-07-13T00:52:46;6.28;;;4.07;;
45792;SDS011;31495;42.740;22.908;2023-07-13T00:53:50;7.35;;;3.70;;
45792;SDS011;31495;42.740;22.908;2023-07-13T00:54:52;5.47;;;3.60;;
45792;SDS011;31495;42.740;22.908;2023-07-13T00:55:52;5.68;;;3.90;;
45792;SDS011;31495;42.740;22.908;2023-07-13T00:56:55;7.90;;;4.15;;
45792;SDS011;31495;42.740;22.908;2023-07-13T00:58:00;10.05;;;3.75;;
45792;SDS011;31495;42.740;22.908;2023-07-13T00:59:02;8.52;;;4.32;;
45792;SDS011;31495;42.740;22.908;2023-07-13T01:00:03;5.90;;;4.50;;
45792;SDS011;31495;42.740;22.908;2023-07-13T01:01:09;5.70;;;3.75;;
45792;SDS011;31495;42.740;22.908;2023-07-13T01:02:08;6.38;;;4.18;;
45792;SDS011;31495;42.740;22.908;2023-07-13T01:03:09;6.93;;;3.78;;
45792;SDS011;31495;42.740;22.908;2023-07-13T01:04:09;6.30;;;4.07;;
45792;SDS011;31495;42.740;22.908;2023-07-13T01:05:13;15.07;;;4.35;;
45792;SDS011;31495;42.740;22.908;2023-07-13T01:06:15;7.30;;;3.97;;
45792;SDS011;31495;42.740;22.908;2023-07-13T01:07:16;7.15;;;3.58;;
45792;SDS011;31495;42.740;22.908;2023-07-13T01:09:17;6.35;;;3.97;;
45792;SDS011;31495;42.740;22.908;2023-07-13T01:11:22;7.47;;;4.15;;
45792;SDS011;31495;42.740;22.908;2023-07-13T01:12:21;9.77;;;4.35;;
45792;SDS011;31495;42.740;22.908;2023-07-13T01:13:21;5.30;;;3.80;;
45792;SDS011;31495;42.740;22.908;2023-07-13T01:14:21;7.03;;;4.68;;
45792;SDS011;31495;42.740;22.908;2023-07-13T01:15:37;7.18;;;4.25;;
45792;SDS011;31495;42.740;22.908;2023-07-13T01:16:46;5.30;;;4.03;;
45792;SDS011;31495;42.740;22.908;2023-07-13T01:17:46;9.65;;;4.13;;
45792;SDS011;31495;42.740;22.908;2023-07-13T01:18:45;8.40;;;3.75;;
45792;SDS011;31495;42.740;22.908;2023-07-13T01:19:45;5.72;;;3.95;;
45792;SDS011;31495;42.740;22.908;2023-07-13T01:20:49;5.20;;;3.50;;
45792;SDS011;31495;42.740;22.908;2023-07-13T01:22:13;8.80;;;3.85;;
45792;SDS011;31495;42.740;22.908;2023-07-13T01:23:14;6.15;;;3.65;;
45792;SDS011;31495;42.740;22.908;2023-07-13T01:24:14;7.97;;;4.57;;
45792;SDS011;31495;42.740;22.908;2023-07-13T01:25:13;7.88;;;4.03;;
45792;SDS011;31495;42.740;22.908;2023-07-13T01:26:13;7.07;;;3.67;;
45792;SDS011;31495;42.740;22.908;2023-07-13T01:27:17;6.47;;;4.32;;
45792;SDS011;31495;42.740;22.908;2023-07-13T01:28:21;6.97;;;3.85;;
45792;SDS011;31495;42.740;22.908;2023-07-13T01:29:21;9.45;;;4.45;;
45792;SDS011;31495;42.740;22.908;2023-07-13T01:30:21;5.80;;;3.75;;
45792;SDS011;31495;42.740;22.908;2023-07-13T01:31:20;6.88;;;3.88;;
45792;SDS011;31495;42.740;22.908;2023-07-13T01:32:21;6.20;;;4.30;;
45792;SDS011;31495;42.740;22.908;2023-07-13T01:33:22;6.90;;;4.40;;
45792;SDS011;31495;42.740;22.908;2023-07-13T01:34:23;10.40;;;4.55;;
45792;SDS011;31495;42.740;22.908;2023-07-13T01:35:22;13.52;;;3.75;;
45792;SDS011;31495;42.740;22.908;2023-07-13T01:37:24;5.85;;;3.53;;
45792;SDS011;31495;42.740;22.908;2023-07-13T01:38:25;6.45;;;4.18;;
45792;SDS011;31495;42.740;22.908;2023-07-13T01:39:24;5.47;;;3.85;;
45792;SDS011;31495;42.740;22.908;2023-07-13T01:40:24;8.45;;;3.88;;
45792;SDS011;31495;42.740;22.908;2023-07-13T01:41:23;6.40;;;3.92;;
45792;SDS011;31495;42.740;22.908;2023-07-13T01:42:23;5.40;;;3.55;;
45792;SDS011;31495;42.740;22.908;2023-07-13T01:43:22;6.28;;;3.78;;
45792;SDS011;31495;42.740;22.908;2023-07-13T01:44:21;6.65;;;3.63;;
45792;SDS011;31495;42.740;22.908;2023-07-13T01:45:21;7.35;;;3.78;;
45792;SDS011;31495;42.740;22.908;2023-07-13T01:46:21;7.97;;;4.13;;
45792;SDS011;31495;42.740;22.908;2023-07-13T01:47:22;7.55;;;4.18;;
45792;SDS011;31495;42.740;22.908;2023-07-13T01:48:22;6.47;;;4.00;;
45792;SDS011;31495;42.740;22.908;2023-07-13T01:49:21;7.55;;;4.13;;
45792;SDS011;31495;42.740;22.908;2023-07-13T01:50:20;6.65;;;4.20;;
45792;SDS011;31495;42.740;22.908;2023-07-13T01:51:20;6.60;;;3.72;;
45792;SDS011;31495;42.740;22.908;2023-07-13T01:52:20;5.78;;;3.83;;
45792;SDS011;31495;42.740;22.908;2023-07-13T01:53:19;5.85;;;3.85;;
45792;SDS011;31495;42.740;22.908;2023-07-13T01:54:19;6.13;;;4.00;;
45792;SDS011;31495;42.740;22.908;2023-07-13T01:55:19;6.43;;;3.72;;
45792;SDS011;31495;42.740;22.908;2023-07-13T01:56:19;9.90;;;3.95;;
45792;SDS011;31495;42.740;22.908;2023-07-13T01:57:18;6.47;;;4.05;;
45792;SDS011;31495;42.740;22.908;2023-07-13T01:58:18;5.95;;;3.78;;
45792;SDS011;31495;42.740;22.908;2023-07-13T01:59:17;8.07;;;4.22;;
45792;SDS011;31495;42.740;22.908;2023-07-13T02:00:17;7.82;;;4.25;;
45792;SDS011;31495;42.740;22.908;2023-07-13T02:01:18;6.72;;;3.67;;
45792;SDS011;31495;42.740;22.908;2023-07-13T02:02:17;6.30;;;4.70;;
45792;SDS011;31495;42.740;22.908;2023-07-13T02:03:16;6.38;;;4.00;;
45792;SDS011;31495;42.740;22.908;2023-07-13T02:04:17;8.18;;;3.80;;
45792;SDS011;31495;42.740;22.908;2023-07-13T02:05:16;6.47;;;4.10;;
45792;SDS011;31495;42.740;22.908;2023-07-13T02:06:16;9.82;;;4.80;;
45792;SDS011;31495;42.740;22.908;2023-07-13T02:07:15;5.80;;;3.55;;
45792;SDS011;31495;42.740;22.908;2023-07-13T02:08:15;5.90;;;4.15;;
45792;SDS011;31495;42.740;22.908;2023-07-13T02:09:14;11.57;;;3.85;;
45792;SDS011;31495;42.740;22.908;2023-07-13T02:10:13;6.97;;;4.40;;
45792;SDS011;31495;42.740;22.908;2023-07-13T02:11:13;6.78;;;4.43;;
45792;SDS011;31495;42.740;22.908;2023-07-13T02:12:13;7.05;;;4.13;;
45792;SDS011;31495;42.740;22.908;2023-07-13T02:13:12;6.78;;;3.95;;
45792;SDS011;31495;42.740;22.908;2023-07-13T02:14:12;6.93;;;4.05;;
45792;SDS011;31495;42.740;22.908;2023-07-13T02:15:11;6.63;;;4.60;;
45792;SDS011;31495;42.740;22.908;2023-07-13T02:16:11;10.80;;;5.22;;
45792;SDS011;31495;42.740;22.908;2023-07-13T02:17:10;7.82;;;4.40;;
45792;SDS011;31495;42.740;22.908;2023-07-13T02:18:10;6.97;;;4.32;;
45792;SDS011;31495;42.740;22.908;2023-07-13T02:19:09;8.25;;;5.05;;
45792;SDS011;31495;42.740;22.908;2023-07-13T02:20:09;7.65;;;4.50;;
45792;SDS011;31495;42.740;22.908;2023-07-13T02:21:09;11.45;;;4.32;;
45792;SDS011;31495;42.740;22.908;2023-07-13T02:22:08;8.18;;;5.18;;
45792;SDS011;31495;42.740;22.908;2023-07-13T02:23:08;9.98;;;4.43;;
45792;SDS011;31495;42.740;22.908;2023-07-13T02:24:07;6.13;;;4.07;;
45792;SDS011;31495;42.740;22.908;2023-07-13T02:25:07;8.88;;;4.35;;
45792;SDS011;31495;42.740;22.908;2023-07-13T02:26:06;6.97;;;4.38;;
45792;SDS011;31495;42.740;22.908;2023-07-13T02:27:06;8.80;;;4.80;;
45792;SDS011;31495;42.740;22.908;2023-07-13T02:28:05;8.52;;;4.95;;
45792;SDS011;31495;42.740;22.908;2023-07-13T02:29:05;8.95;;;5.05;;
45792;SDS011;31495;42.740;22.908;2023-07-13T02:30:04;8.23;;;5.15;;
45792;SDS011;31495;42.740;22.908;2023-07-13T02:31:09;5.90;;;4.35;;
45792;SDS011;31495;42.740;22.908;2023-07-13T02:32:11;9.23;;;4.95;;
45792;SDS011;31495;42.740;22.908;2023-07-13T02:33:11;7.10;;;4.45;;
45792;SDS011;31495;42.740;22.908;2023-07-13T02:34:11;9.38;;;4.60;;
45792;SDS011;31495;42.740;22.908;2023-07-13T02:35:10;8.40;;;4.60;;
45792;SDS011;31495;42.740;22.908;2023-07-13T02:36:10;10.60;;;4.50;;
45792;SDS011;31495;42.740;22.908;2023-07-13T02:37:11;8.65;;;5.03;;
45792;SDS011;31495;42.740;22.908;2023-07-13T02:38:11;8.45;;;4.70;;
45792;SDS011;31495;42.740;22.908;2023-07-13T02:39:11;7.55;;;3.90;;
45792;SDS011;31495;42.740;22.908;2023-07-13T02:40:11;7.55;;;4.70;;
45792;SDS011;31495;42.740;22.908;2023-07-13T02:41:11;7.30;;;4.63;;
45792;SDS011;31495;42.740;22.908;2023-07-13T02:42:11;6.70;;;4.60;;
45792;SDS011;31495;42.740;22.908;2023-07-13T02:43:11;5.95;;;4.45;;
45792;SDS011;31495;42.740;22.908;2023-07-13T02:44:12;5.68;;;3.85;;
45792;SDS011;31495;42.740;22.908;2023-07-13T02:45:12;12.52;;;4.53;;
45792;SDS011;31495;42.740;22.908;2023-07-13T02:46:13;6.43;;;4.10;;
45792;SDS011;31495;42.740;22.908;2023-07-13T02:47:12;6.43;;;4.45;;
45792;SDS011;31495;42.740;22.908;2023-07-13T02:48:13;10.35;;;4.88;;
45792;SDS011;31495;42.740;22.908;2023-07-13T02:49:13;8.52;;;4.60;;
45792;SDS011;31495;42.740;22.908;2023-07-13T02:50:12;7.50;;;4.93;;
45792;SDS011;31495;42.740;22.908;2023-07-13T02:51:12;11.23;;;4.72;;
45792;SDS011;31495;42.740;22.908;2023-07-13T02:52:11;9.07;;;6.05;;
45792;SDS011;31495;42.740;22.908;2023-07-13T02:53:11;5.50;;;4.10;;
45792;SDS011;31495;42.740;22.908;2023-07-13T02:54:10;7.10;;;4.72;;
45792;SDS011;31495;42.740;22.908;2023-07-13T02:55:12;8.90;;;4.97;;
45792;SDS011;31495;42.740;22.908;2023-07-13T02:56:12;6.78;;;4.55;;
45792;SDS011;31495;42.740;22.908;2023-07-13T02:57:11;7.78;;;4.68;;
45792;SDS011;31495;42.740;22.908;2023-07-13T02:58:10;7.28;;;4.95;;
45792;SDS011;31495;42.740;22.908;2023-07-13T02:59:10;7.40;;;4.60;;
45792;SDS011;31495;42.740;22.908;2023-07-13T03:00:10;10.05;;;4.95;;
45792;SDS011;31495;42.740;22.908;2023-07-13T03:01:11;6.40;;;4.20;;
45792;SDS011;31495;42.740;22.908;2023-07-13T03:02:11;9.00;;;4.70;;
45792;SDS011;31495;42.740;22.908;2023-07-13T03:03:10;6.82;;;4.30;;
45792;SDS011;31495;42.740;22.908;2023-07-13T03:04:10;8.27;;;4.93;;
45792;SDS011;31495;42.740;22.908;2023-07-13T03:05:10;9.48;;;5.15;;
45792;SDS011;31495;42.740;22.908;2023-07-13T03:06:12;6.28;;;4.07;;
45792;SDS011;31495;42.740;22.908;2023-07-13T03:07:12;9.50;;;5.38;;
45792;SDS011;31495;42.740;22.908;2023-07-13T03:08:13;7.15;;;4.18;;
45792;SDS011;31495;42.740;22.908;2023-07-13T03:09:12;8.95;;;4.93;;
45792;SDS011;31495;42.740;22.908;2023-07-13T03:10:12;5.55;;;4.18;;
45792;SDS011;31495;42.740;22.908;2023-07-13T03:11:13;6.78;;;4.15;;
45792;SDS011;31495;42.740;22.908;2023-07-13T03:12:15;6.10;;;4.32;;
45792;SDS011;31495;42.740;22.908;2023-07-13T03:13:14;8.20;;;4.20;;
45792;SDS011;31495;42.740;22.908;2023-07-13T03:14:14;4.85;;;4.10;;
45792;SDS011;31495;42.740;22.908;2023-07-13T03:15:13;8.27;;;3.78;;
45792;SDS011;31495;42.740;22.908;2023-07-13T03:16:13;8.65;;;4.68;;
45792;SDS011;31495;42.740;22.908;2023-07-13T03:17:14;7.40;;;4.95;;
45792;SDS011;31495;42.740;22.908;2023-07-13T03:18:14;8.02;;;4.85;;
45792;SDS011;31495;42.740;22.908;2023-07-13T03:19:13;10.13;;;5.43;;
45792;SDS011;31495;42.740;22.908;2023-07-13T03:20:12;9.13;;;5.43;;
45792;SDS011;31495;42.740;22.908;2023-07-13T03:21:12;11.60;;;5.18;;
45792;SDS011;31495;42.740;22.908;2023-07-13T03:22:11;11.60;;;5.30;;
45792;SDS011;31495;42.740;22.908;2023-07-13T03:23:11;8.50;;;5.50;;
45792;SDS011;31495;42.740;22.908;2023-07-13T03:24:10;8.23;;;4.82;;
45792;SDS011;31495;42.740;22.908;2023-07-13T03:25:10;9.85;;;4.43;;
45792;SDS011;31495;42.740;22.908;2023-07-13T03:26:11;11.77;;;4.63;;
45792;SDS011;31495;42.740;22.908;2023-07-13T03:27:12;8.15;;;5.95;;
45792;SDS011;31495;42.740;22.908;2023-07-13T03:28:12;18.70;;;4.43;;
45792;SDS011;31495;42.740;22.908;2023-07-13T03:29:12;13.65;;;5.05;;
45792;SDS011;31495;42.740;22.908;2023-07-13T03:30:11;10.82;;;5.15;;
45792;SDS011;31495;42.740;22.908;2023-07-13T03:31:13;11.05;;;5.15;;
45792;SDS011;31495;42.740;22.908;2023-07-13T03:32:16;9.60;;;4.10;;
45792;SDS011;31495;42.740;22.908;2023-07-13T03:33:15;7.63;;;5.18;;
45792;SDS011;31495;42.740;22.908;2023-07-13T03:34:15;6.93;;;4.93;;
45792;SDS011;31495;42.740;22.908;2023-07-13T03:35:14;8.10;;;5.18;;
45792;SDS011;31495;42.740;22.908;2023-07-13T03:36:16;8.35;;;4.57;;
45792;SDS011;31495;42.740;22.908;2023-07-13T03:37:20;12.18;;;6.38;;
45792;SDS011;31495;42.740;22.908;2023-07-13T03:38:19;8.07;;;5.63;;
45792;SDS011;31495;42.740;22.908;2023-07-13T03:39:19;11.20;;;5.60;;
45792;SDS011;31495;42.740;22.908;2023-07-13T03:40:18;13.75;;;5.65;;
45792;SDS011;31495;42.740;22.908;2023-07-13T03:41:18;10.02;;;5.03;;
45792;SDS011;31495;42.740;22.908;2023-07-13T03:42:18;9.32;;;5.20;;
45792;SDS011;31495;42.740;22.908;2023-07-13T03:43:18;11.13;;;4.45;;
45792;SDS011;31495;42.740;22.908;2023-07-13T03:44:19;8.02;;;4.80;;
45792;SDS011;31495;42.740;22.908;2023-07-13T03:45:18;7.93;;;4.82;;
45792;SDS011;31495;42.740;22.908;2023-07-13T03:46:19;7.05;;;4.97;;
45792;SDS011;31495;42.740;22.908;2023-07-13T03:47:18;8.57;;;5.15;;
45792;SDS011;31495;42.740;22.908;2023-07-13T03:48:18;10.82;;;4.78;;
45792;SDS011;31495;42.740;22.908;2023-07-13T03:49:17;10.65;;;4.90;;
45792;SDS011;31495;42.740;22.908;2023-07-13T03:50:17;10.07;;;4.53;;
45792;SDS011;31495;42.740;22.908;2023-07-13T03:51:17;9.20;;;4.35;;
45792;SDS011;31495;42.740;22.908;2023-07-13T03:52:17;7.93;;;4.80;;
45792;SDS011;31495;42.740;22.908;2023-07-13T03:53:17;6.90;;;4.60;;
45792;SDS011;31495;42.740;22.908;2023-07-13T03:54:18;9.43;;;4.80;;
45792;SDS011;31495;42.740;22.908;2023-07-13T03:55:17;9.35;;;4.68;;
45792;SDS011;31495;42.740;22.908;2023-07-13T03:56:17;7.60;;;4.97;;
45792;SDS011;31495;42.740;22.908;2023-07-13T03:57:18;10.25;;;5.22;;
45792;SDS011;31495;42.740;22.908;2023-07-13T03:59:25;8.00;;;4.72;;
45792;SDS011;31495;42.740;22.908;2023-07-13T04:00:24;8.77;;;4.72;;
45792;SDS011;31495;42.740;22.908;2023-07-13T04:01:24;9.23;;;4.95;;
45792;SDS011;31495;42.740;22.908;2023-07-13T04:02:24;12.70;;;4.75;;
45792;SDS011;31495;42.740;22.908;2023-07-13T04:03:23;6.20;;;5.15;;
45792;SDS011;31495;42.740;22.908;2023-07-13T04:04:23;7.43;;;4.68;;
45792;SDS011;31495;42.740;22.908;2023-07-13T04:05:23;6.75;;;4.10;;
45792;SDS011;31495;42.740;22.908;2023-07-13T04:06:25;11.48;;;4.72;;
45792;SDS011;31495;42.740;22.908;2023-07-13T04:07:27;9.73;;;5.72;;
45792;SDS011;31495;42.740;22.908;2023-07-13T04:08:27;6.63;;;4.97;;
45792;SDS011;31495;42.740;22.908;2023-07-13T04:09:27;8.70;;;4.47;;
45792;SDS011;31495;42.740;22.908;2023-07-13T04:10:27;8.45;;;4.75;;
45792;SDS011;31495;42.740;22.908;2023-07-13T04:11:27;7.88;;;5.50;;
45792;SDS011;31495;42.740;22.908;2023-07-13T04:12:29;7.30;;;4.93;;
45792;SDS011;31495;42.740;22.908;2023-07-13T04:13:28;7.70;;;4.82;;
45792;SDS011;31495;42.740;22.908;2023-07-13T04:14:28;7.57;;;4.93;;
45792;SDS011;31495;42.740;22.908;2023-07-13T04:15:29;6.65;;;4.78;;
45792;SDS011;31495;42.740;22.908;2023-07-13T04:17:29;7.57;;;5.15;;
45792;SDS011;31495;42.740;22.908;2023-07-13T04:18:29;9.38;;;5.45;;
45792;SDS011;31495;42.740;22.908;2023-07-13T04:19:28;8.85;;;5.40;;
45792;SDS011;31495;42.740;22.908;2023-07-13T04:20:27;9.52;;;6.00;;
45792;SDS011;31495;42.740;22.908;2023-07-13T04:21:28;10.45;;;5.03;;
45792;SDS011;31495;42.740;22.908;2023-07-13T04:22:30;10.18;;;5.53;;
45792;SDS011;31495;42.740;22.908;2023-07-13T04:23:29;9.68;;;5.72;;
45792;SDS011;31495;42.740;22.908;2023-07-13T04:24:28;13.45;;;6.18;;
45792;SDS011;31495;42.740;22.908;2023-07-13T04:25:28;13.82;;;5.93;;
45792;SDS011;31495;42.740;22.908;2023-07-13T04:26:27;9.27;;;5.50;;
45792;SDS011;31495;42.740;22.908;2023-07-13T04:27:27;7.95;;;4.90;;
45792;SDS011;31495;42.740;22.908;2023-07-13T04:28:27;8.55;;;5.13;;
45792;SDS011;31495;42.740;22.908;2023-07-13T04:29:27;9.18;;;5.38;;
45792;SDS011;31495;42.740;22.908;2023-07-13T04:30:26;11.57;;;5.20;;
45792;SDS011;31495;42.740;22.908;2023-07-13T04:31:25;9.07;;;5.75;;
45792;SDS011;31495;42.740;22.908;2023-07-13T04:32:25;6.63;;;5.45;;
45792;SDS011;31495;42.740;22.908;2023-07-13T04:33:25;6.70;;;5.03;;
45792;SDS011;31495;42.740;22.908;2023-07-13T04:34:26;9.88;;;5.03;;
45792;SDS011;31495;42.740;22.908;2023-07-13T04:35:25;7.43;;;5.22;;
45792;SDS011;31495;42.740;22.908;2023-07-13T04:36:25;10.00;;;5.60;;
45792;SDS011;31495;42.740;22.908;2023-07-13T04:37:27;8.20;;;5.93;;
45792;SDS011;31495;42.740;22.908;2023-07-13T04:38:28;11.48;;;5.35;;
45792;SDS011;31495;42.740;22.908;2023-07-13T04:39:29;7.65;;;5.22;;
45792;SDS011;31495;42.740;22.908;2023-07-13T04:40:29;9.02;;;5.28;;
45792;SDS011;31495;42.740;22.908;2023-07-13T04:41:28;7.40;;;5.18;;
45792;SDS011;31495;42.740;22.908;2023-07-13T04:42:28;6.97;;;5.15;;
45792;SDS011;31495;42.740;22.908;2023-07-13T04:43:27;8.55;;;5.55;;
45792;SDS011;31495;42.740;22.908;2023-07-13T04:44:28;9.98;;;5.53;;
45792;SDS011;31495;42.740;22.908;2023-07-13T04:45:27;7.22;;;5.72;;
45792;SDS011;31495;42.740;22.908;2023-07-13T04:46:27;11.88;;;6.20;;
45792;SDS011;31495;42.740;22.908;2023-07-13T04:47:26;11.13;;;6.20;;
45792;SDS011;31495;42.740;22.908;2023-07-13T04:48:29;10.60;;;4.90;;
45792;SDS011;31495;42.740;22.908;2023-07-13T04:49:28;13.77;;;6.28;;
45792;SDS011;31495;42.740;22.908;2023-07-13T04:50:28;11.52;;;6.30;;
45792;SDS011;31495;42.740;22.908;2023-07-13T04:51:27;12.88;;;6.10;;
45792;SDS011;31495;42.740;22.908;2023-07-13T04:52:27;10.95;;;6.18;;
45792;SDS011;31495;42.740;22.908;2023-07-13T04:53:26;9.60;;;5.68;;
45792;SDS011;31495;42.740;22.908;2023-07-13T04:54:26;16.42;;;5.85;;
45792;SDS011;31495;42.740;22.908;2023-07-13T04:55:26;12.23;;;5.68;;
45792;SDS011;31495;42.740;22.908;2023-07-13T04:56:29;12.20;;;5.35;;
45792;SDS011;31495;42.740;22.908;2023-07-13T04:57:29;11.50;;;5.53;;
45792;SDS011;31495;42.740;22.908;2023-07-13T04:58:29;9.07;;;5.63;;
45792;SDS011;31495;42.740;22.908;2023-07-13T04:59:29;11.25;;;6.75;;
45792;SDS011;31495;42.740;22.908;2023-07-13T05:00:28;19.05;;;6.95;;
45792;SDS011;31495;42.740;22.908;2023-07-13T05:01:28;8.80;;;6.10;;
45792;SDS011;31495;42.740;22.908;2023-07-13T05:02:28;6.63;;;5.13;;
45792;SDS011;31495;42.740;22.908;2023-07-13T05:03:27;9.60;;;5.90;;
45792;SDS011;31495;42.740;22.908;2023-07-13T05:04:27;10.75;;;5.53;;
45792;SDS011;31495;42.740;22.908;2023-07-13T05:05:27;11.02;;;5.70;;
45792;SDS011;31495;42.740;22.908;2023-07-13T05:06:26;12.35;;;6.07;;
45792;SDS011;31495;42.740;22.908;2023-07-13T05:07:26;8.35;;;5.35;;
45792;SDS011;31495;42.740;22.908;2023-07-13T05:08:25;11.90;;;7.50;;
45792;SDS011;31495;42.740;22.908;2023-07-13T05:09:25;13.82;;;7.03;;
45792;SDS011;31495;42.740;22.908;2023-07-13T05:10:24;8.68;;;5.68;;
45792;SDS011;31495;42.740;22.908;2023-07-13T05:11:24;11.48;;;5.50;;
45792;SDS011;31495;42.740;22.908;2023-07-13T05:12:24;14.23;;;6.03;;
45792;SDS011;31495;42.740;22.908;2023-07-13T05:13:23;9.60;;;5.38;;
45792;SDS011;31495;42.740;22.908;2023-07-13T05:14:23;9.85;;;5.68;;
45792;SDS011;31495;42.740;22.908;2023-07-13T05:15:23;12.32;;;4.53;;
45792;SDS011;31495;42.740;22.908;2023-07-13T05:16:24;9.48;;;5.47;;
45792;SDS011;31495;42.740;22.908;2023-07-13T05:17:23;7.30;;;5.40;;
45792;SDS011;31495;42.740;22.908;2023-07-13T05:18:23;12.30;;;6.03;;
45792;SDS011;31495;42.740;22.908;2023-07-13T05:19:23;14.57;;;5.35;;
45792;SDS011;31495;42.740;22.908;2023-07-13T05:20:22;10.38;;;5.03;;
45792;SDS011;31495;42.740;22.908;2023-07-13T05:21:22;6.45;;;4.70;;
45792;SDS011;31495;42.740;22.908;2023-07-13T05:22:21;9.93;;;5.25;;
45792;SDS011;31495;42.740;22.908;2023-07-13T05:23:21;14.10;;;5.82;;
45792;SDS011;31495;42.740;22.908;2023-07-13T05:24:20;10.93;;;5.72;;
45792;SDS011;31495;42.740;22.908;2023-07-13T05:25:19;10.85;;;5.82;;
45792;SDS011;31495;42.740;22.908;2023-07-13T05:26:19;8.20;;;5.60;;
45792;SDS011;31495;42.740;22.908;2023-07-13T05:27:19;7.85;;;4.63;;
45792;SDS011;31495;42.740;22.908;2023-07-13T05:28:19;11.13;;;5.28;;
45792;SDS011;31495;42.740;22.908;2023-07-13T05:29:19;8.60;;;5.57;;
45792;SDS011;31495;42.740;22.908;2023-07-13T05:30:19;7.65;;;5.75;;
45792;SDS011;31495;42.740;22.908;2023-07-13T05:31:18;11.70;;;5.15;;
45792;SDS011;31495;42.740;22.908;2023-07-13T05:32:18;11.50;;;5.10;;
45792;SDS011;31495;42.740;22.908;2023-07-13T05:33:17;7.57;;;5.78;;
45792;SDS011;31495;42.740;22.908;2023-07-13T05:34:17;8.38;;;5.63;;
45792;SDS011;31495;42.740;22.908;2023-07-13T05:35:16;7.30;;;5.20;;
45792;SDS011;31495;42.740;22.908;2023-07-13T05:36:16;7.70;;;5.78;;
45792;SDS011;31495;42.740;22.908;2023-07-13T05:37:15;11.75;;;6.25;;
45792;SDS011;31495;42.740;22.908;2023-07-13T05:38:15;7.72;;;5.18;;
45792;SDS011;31495;42.740;22.908;2023-07-13T05:39:15;8.88;;;5.45;;
45792;SDS011;31495;42.740;22.908;2023-07-13T05:40:15;8.57;;;5.43;;
45792;SDS011;31495;42.740;22.908;2023-07-13T05:41:14;10.07;;;5.63;;
45792;SDS011;31495;42.740;22.908;2023-07-13T05:42:14;9.38;;;4.38;;
45792;SDS011;31495;42.740;22.908;2023-07-13T05:43:14;11.38;;;5.93;;
45792;SDS011;31495;42.740;22.908;2023-07-13T05:44:13;7.35;;;5.07;;
45792;SDS011;31495;42.740;22.908;2023-07-13T05:45:13;7.60;;;5.32;;
45792;SDS011;31495;42.740;22.908;2023-07-13T05:46:12;8.80;;;5.10;;
45792;SDS011;31495;42.740;22.908;2023-07-13T05:47:12;11.50;;;5.13;;
45792;SDS011;31495;42.740;22.908;2023-07-13T05:48:13;7.22;;;4.55;;
45792;SDS011;31495;42.740;22.908;2023-07-13T05:49:12;10.60;;;5.70;;
45792;SDS011;31495;42.740;22.908;2023-07-13T05:50:12;12.52;;;4.97;;
45792;SDS011;31495;42.740;22.908;2023-07-13T05:51:11;12.30;;;5.07;;
45792;SDS011;31495;42.740;22.908;2023-07-13T05:52:10;8.25;;;4.70;;
45792;SDS011;31495;42.740;22.908;2023-07-13T05:53:11;14.80;;;5.22;;
45792;SDS011;31495;42.740;22.908;2023-07-13T05:54:11;7.35;;;5.05;;
45792;SDS011;31495;42.740;22.908;2023-07-13T05:55:11;8.68;;;4.85;;
45792;SDS011;31495;42.740;22.908;2023-07-13T05:56:10;9.32;;;5.20;;
45792;SDS011;31495;42.740;22.908;2023-07-13T05:57:09;8.57;;;4.43;;
45792;SDS011;31495;42.740;22.908;2023-07-13T05:58:09;9.52;;;5.15;;
45792;SDS011;31495;42.740;22.908;2023-07-13T05:59:10;9.75;;;4.70;;
45792;SDS011;31495;42.740;22.908;2023-07-13T06:00:10;9.68;;;5.55;;
45792;SDS011;31495;42.740;22.908;2023-07-13T06:01:11;12.77;;;5.20;;
45792;SDS011;31495;42.740;22.908;2023-07-13T06:02:13;15.20;;;5.05;;